EmailTwitter


Surface observations / United Kingdom / EGLL (03772)

Regions: Quebec | Canada | USA | Europe | France | UK | Elsewhere
Station
Display
Info & Location for EGLL (03772) | Help decoding METAR

Weather Conditions observed on 2019/03/22 at 12:20 UTC at LONDON/HEATHROW, UK (EGLL)

Sky conditions: overcast.

Temperature: 10.0 Celsius.

Dewpoint: 7.0 Celsius.

Relative Humidity: 82%

Windchill Factor: 8.

Winds: Southwest at 15 km/h or 8 knots.

Mean Sea level Pressure: 102.80 kilopascals.

Horizontal visibility: 6.21 statute miles or 9.94 kilometers.

Height of the Ceiling: 366 metres ( 1200 feet ).

Coded METAR:

EGLL 221220Z AUTO 21008KT 180V240 9999 OVC012 10/07 Q1028 BECMG BKN015=